sensor_id;sensor_type;location;lat;lon;timestamp;P1;durP1;ratioP1;P2;durP2;ratioP2
23730;SDS011;12046;44.702;10.622;2023-10-08T00:01:37;20.38;;;18.35;;
23730;SDS011;12046;44.702;10.622;2023-10-08T00:04:10;19.83;;;18.02;;
23730;SDS011;12046;44.702;10.622;2023-10-08T00:06:53;19.40;;;17.63;;
23730;SDS011;12046;44.702;10.622;2023-10-08T00:09:36;18.55;;;16.75;;
23730;SDS011;12046;44.702;10.622;2023-10-08T00:12:05;18.05;;;16.25;;
23730;SDS011;12046;44.702;10.622;2023-10-08T00:14:38;18.35;;;16.63;;
23730;SDS011;12046;44.702;10.622;2023-10-08T00:17:21;19.17;;;17.40;;
23730;SDS011;12046;44.702;10.622;2023-10-08T00:19:47;25.77;;;23.38;;
23730;SDS011;12046;44.702;10.622;2023-10-08T00:22:26;24.08;;;21.75;;
23730;SDS011;12046;44.702;10.622;2023-10-08T00:24:54;22.95;;;20.90;;
23730;SDS011;12046;44.702;10.622;2023-10-08T00:27:23;24.90;;;22.50;;
23730;SDS011;12046;44.702;10.622;2023-10-08T00:29:51;24.23;;;21.77;;
23730;SDS011;12046;44.702;10.622;2023-10-08T00:32:17;22.88;;;20.75;;
23730;SDS011;12046;44.702;10.622;2023-10-08T00:34:43;22.02;;;19.92;;
23730;SDS011;12046;44.702;10.622;2023-10-08T00:37:14;23.38;;;21.17;;
23730;SDS011;12046;44.702;10.622;2023-10-08T00:39:46;22.95;;;20.85;;
23730;SDS011;12046;44.702;10.622;2023-10-08T00:42:12;20.90;;;18.85;;
23730;SDS011;12046;44.702;10.622;2023-10-08T00:44:41;21.80;;;19.80;;
23730;SDS011;12046;44.702;10.622;2023-10-08T00:47:20;21.48;;;19.48;;
23730;SDS011;12046;44.702;10.622;2023-10-08T00:49:54;20.85;;;18.90;;
23730;SDS011;12046;44.702;10.622;2023-10-08T00:55:48;21.25;;;19.25;;
23730;SDS011;12046;44.702;10.622;2023-10-08T00:58:33;22.35;;;20.15;;
23730;SDS011;12046;44.702;10.622;2023-10-08T01:00:59;25.00;;;22.58;;
23730;SDS011;12046;44.702;10.622;2023-10-08T01:03:28;22.42;;;20.42;;
23730;SDS011;12046;44.702;10.622;2023-10-08T01:05:54;23.17;;;21.02;;
23730;SDS011;12046;44.702;10.622;2023-10-08T01:08:25;20.83;;;18.73;;
23730;SDS011;12046;44.702;10.622;2023-10-08T01:14:12;19.65;;;17.85;;
23730;SDS011;12046;44.702;10.622;2023-10-08T01:16:40;21.02;;;19.08;;
23730;SDS011;12046;44.702;10.622;2023-10-08T01:19:19;22.35;;;20.25;;
23730;SDS011;12046;44.702;10.622;2023-10-08T01:21:51;22.55;;;20.45;;
23730;SDS011;12046;44.702;10.622;2023-10-08T01:24:36;22.27;;;20.05;;
23730;SDS011;12046;44.702;10.622;2023-10-08T01:27:03;21.92;;;19.83;;
23730;SDS011;12046;44.702;10.622;2023-10-08T01:29:37;23.30;;;21.00;;
23730;SDS011;12046;44.702;10.622;2023-10-08T01:32:03;22.88;;;20.67;;
23730;SDS011;12046;44.702;10.622;2023-10-08T01:34:38;21.15;;;19.10;;
23730;SDS011;12046;44.702;10.622;2023-10-08T01:37:04;18.98;;;17.08;;
23730;SDS011;12046;44.702;10.622;2023-10-08T01:39:46;20.52;;;18.63;;
23730;SDS011;12046;44.702;10.622;2023-10-08T01:42:20;21.70;;;19.70;;
23730;SDS011;12046;44.702;10.622;2023-10-08T01:44:48;19.02;;;17.23;;
23730;SDS011;12046;44.702;10.622;2023-10-08T01:47:15;22.23;;;20.15;;
23730;SDS011;12046;44.702;10.622;2023-10-08T01:49:51;22.58;;;20.55;;
23730;SDS011;12046;44.702;10.622;2023-10-08T01:52:25;21.38;;;19.35;;
23730;SDS011;12046;44.702;10.622;2023-10-08T01:54:52;21.08;;;19.08;;
23730;SDS011;12046;44.702;10.622;2023-10-08T01:57:19;22.15;;;20.13;;
23730;SDS011;12046;44.702;10.622;2023-10-08T01:59:51;26.60;;;24.13;;
23730;SDS011;12046;44.702;10.622;2023-10-08T02:02:16;25.88;;;23.48;;
23730;SDS011;12046;44.702;10.622;2023-10-08T02:04:48;27.02;;;24.40;;
23730;SDS011;12046;44.702;10.622;2023-10-08T02:07:14;28.48;;;25.67;;
23730;SDS011;12046;44.702;10.622;2023-10-08T02:09:40;34.50;;;31.05;;
23730;SDS011;12046;44.702;10.622;2023-10-08T02:12:15;31.23;;;28.05;;
23730;SDS011;12046;44.702;10.622;2023-10-08T02:14:44;24.83;;;22.35;;
23730;SDS011;12046;44.702;10.622;2023-10-08T02:17:10;23.23;;;20.92;;
23730;SDS011;12046;44.702;10.622;2023-10-08T02:19:47;21.67;;;19.48;;
23730;SDS011;12046;44.702;10.622;2023-10-08T02:22:25;19.55;;;17.65;;
23730;SDS011;12046;44.702;10.622;2023-10-08T02:24:52;20.90;;;18.90;;
23730;SDS011;12046;44.702;10.622;2023-10-08T02:27:41;25.08;;;22.52;;
23730;SDS011;12046;44.702;10.622;2023-10-08T02:34:24;27.10;;;24.02;;
23730;SDS011;12046;44.702;10.622;2023-10-08T02:36:56;26.80;;;24.05;;
23730;SDS011;12046;44.702;10.622;2023-10-08T02:39:22;25.27;;;22.77;;
23730;SDS011;12046;44.702;10.622;2023-10-08T02:46:02;25.42;;;22.83;;
23730;SDS011;12046;44.702;10.622;2023-10-08T02:48:52;26.15;;;23.45;;
23730;SDS011;12046;44.702;10.622;2023-10-08T02:51:18;23.13;;;20.77;;
23730;SDS011;12046;44.702;10.622;2023-10-08T02:53:46;24.70;;;22.08;;
23730;SDS011;12046;44.702;10.622;2023-10-08T02:56:23;24.75;;;22.35;;
23730;SDS011;12046;44.702;10.622;2023-10-08T02:59:12;23.73;;;21.50;;
23730;SDS011;12046;44.702;10.622;2023-10-08T03:02:16;26.50;;;23.70;;
23730;SDS011;12046;44.702;10.622;2023-10-08T03:08:24;22.27;;;20.08;;
23730;SDS011;12046;44.702;10.622;2023-10-08T03:10:56;23.77;;;21.33;;
23730;SDS011;12046;44.702;10.622;2023-10-08T03:13:32;24.63;;;22.23;;
23730;SDS011;12046;44.702;10.622;2023-10-08T03:19:16;33.53;;;30.13;;
23730;SDS011;12046;44.702;10.622;2023-10-08T03:22:38;32.30;;;28.92;;
23730;SDS011;12046;44.702;10.622;2023-10-08T03:25:50;30.08;;;26.92;;
23730;SDS011;12046;44.702;10.622;2023-10-08T03:28:50;28.85;;;25.92;;
23730;SDS011;12046;44.702;10.622;2023-10-08T03:31:57;30.67;;;27.48;;
23730;SDS011;12046;44.702;10.622;2023-10-08T03:34:23;31.55;;;28.05;;
23730;SDS011;12046;44.702;10.622;2023-10-08T03:37:01;33.38;;;29.95;;
23730;SDS011;12046;44.702;10.622;2023-10-08T03:40:14;33.60;;;30.10;;
23730;SDS011;12046;44.702;10.622;2023-10-08T03:46:52;30.27;;;26.25;;
23730;SDS011;12046;44.702;10.622;2023-10-08T03:49:42;30.63;;;27.42;;
23730;SDS011;12046;44.702;10.622;2023-10-08T03:59:00;23.75;;;21.33;;
23730;SDS011;12046;44.702;10.622;2023-10-08T04:01:36;25.55;;;23.05;;
23730;SDS011;12046;44.702;10.622;2023-10-08T04:04:13;23.35;;;20.98;;
23730;SDS011;12046;44.702;10.622;2023-10-08T04:06:40;22.48;;;20.27;;
23730;SDS011;12046;44.702;10.622;2023-10-08T04:09:29;20.90;;;18.75;;
23730;SDS011;12046;44.702;10.622;2023-10-08T04:12:06;20.70;;;18.60;;
23730;SDS011;12046;44.702;10.622;2023-10-08T04:14:54;21.02;;;18.92;;
23730;SDS011;12046;44.702;10.622;2023-10-08T04:17:21;20.80;;;18.80;;
23730;SDS011;12046;44.702;10.622;2023-10-08T04:23:57;20.23;;;18.23;;
23730;SDS011;12046;44.702;10.622;2023-10-08T04:30:48;22.10;;;19.92;;
23730;SDS011;12046;44.702;10.622;2023-10-08T04:34:02;20.67;;;18.67;;
23730;SDS011;12046;44.702;10.622;2023-10-08T04:37:22;20.35;;;18.35;;
23730;SDS011;12046;44.702;10.622;2023-10-08T05:48:31;18.58;;;16.73;;
23730;SDS011;12046;44.702;10.622;2023-10-08T05:51:06;19.83;;;17.77;;
23730;SDS011;12046;44.702;10.622;2023-10-08T06:06:24;19.52;;;17.63;;
23730;SDS011;12046;44.702;10.622;2023-10-08T06:09:02;17.40;;;15.73;;
23730;SDS011;12046;44.702;10.622;2023-10-08T06:25:31;16.30;;;14.80;;
23730;SDS011;12046;44.702;10.622;2023-10-08T06:27:57;16.90;;;15.30;;
23730;SDS011;12046;44.702;10.622;2023-10-08T07:07:09;14.45;;;13.13;;
23730;SDS011;12046;44.702;10.622;2023-10-08T07:09:43;14.75;;;13.35;;
23730;SDS011;12046;44.702;10.622;2023-10-08T07:12:09;15.25;;;13.85;;
23730;SDS011;12046;44.702;10.622;2023-10-08T07:14:39;14.40;;;13.13;;
23730;SDS011;12046;44.702;10.622;2023-10-08T07:17:06;13.63;;;12.43;;
23730;SDS011;12046;44.702;10.622;2023-10-08T07:19:33;13.65;;;12.40;;
23730;SDS011;12046;44.702;10.622;2023-10-08T07:22:03;15.23;;;13.93;;
23730;SDS011;12046;44.702;10.622;2023-10-08T07:24:33;14.70;;;13.40;;
23730;SDS011;12046;44.702;10.622;2023-10-08T07:27:01;14.63;;;13.25;;
23730;SDS011;12046;44.702;10.622;2023-10-08T07:29:34;14.50;;;13.20;;
23730;SDS011;12046;44.702;10.622;2023-10-08T07:32:00;14.02;;;12.75;;
23730;SDS011;12046;44.702;10.622;2023-10-08T07:34:35;13.43;;;12.32;;
23730;SDS011;12046;44.702;10.622;2023-10-08T07:37:02;13.55;;;12.45;;
23730;SDS011;12046;44.702;10.622;2023-10-08T07:39:31;13.20;;;12.00;;
23730;SDS011;12046;44.702;10.622;2023-10-08T07:42:02;13.60;;;12.50;;
23730;SDS011;12046;44.702;10.622;2023-10-08T07:44:35;13.32;;;12.05;;
23730;SDS011;12046;44.702;10.622;2023-10-08T07:47:01;15.60;;;14.10;;
23730;SDS011;12046;44.702;10.622;2023-10-08T07:49:35;13.95;;;12.75;;
23730;SDS011;12046;44.702;10.622;2023-10-08T07:52:04;12.70;;;11.60;;
23730;SDS011;12046;44.702;10.622;2023-10-08T07:54:30;14.68;;;13.27;;
23730;SDS011;12046;44.702;10.622;2023-10-08T07:57:07;12.93;;;11.85;;
23730;SDS011;12046;44.702;10.622;2023-10-08T07:59:55;11.73;;;10.73;;
23730;SDS011;12046;44.702;10.622;2023-10-08T08:02:43;11.80;;;10.70;;
23730;SDS011;12046;44.702;10.622;2023-10-08T08:05:09;10.73;;;9.73;;
23730;SDS011;12046;44.702;10.622;2023-10-08T08:07:35;10.90;;;9.85;;
23730;SDS011;12046;44.702;10.622;2023-10-08T08:10:02;10.60;;;9.70;;
23730;SDS011;12046;44.702;10.622;2023-10-08T08:12:36;10.32;;;9.45;;
23730;SDS011;12046;44.702;10.622;2023-10-08T08:15:03;9.48;;;8.68;;
23730;SDS011;12046;44.702;10.622;2023-10-08T08:17:43;10.35;;;9.45;;
23730;SDS011;12046;44.702;10.622;2023-10-08T08:20:12;11.55;;;10.57;;
23730;SDS011;12046;44.702;10.622;2023-10-08T08:22:44;10.68;;;9.77;;
23730;SDS011;12046;44.702;10.622;2023-10-08T08:25:19;10.85;;;9.85;;
23730;SDS011;12046;44.702;10.622;2023-10-08T08:28:08;10.82;;;9.75;;
23730;SDS011;12046;44.702;10.622;2023-10-08T08:30:49;10.48;;;9.68;;
23730;SDS011;12046;44.702;10.622;2023-10-08T08:33:21;10.38;;;9.57;;
23730;SDS011;12046;44.702;10.622;2023-10-08T08:38:47;10.43;;;9.43;;
23730;SDS011;12046;44.702;10.622;2023-10-08T08:41:13;9.63;;;8.88;;
23730;SDS011;12046;44.702;10.622;2023-10-08T08:43:52;11.15;;;10.15;;
23730;SDS011;12046;44.702;10.622;2023-10-08T08:46:27;10.45;;;9.45;;
23730;SDS011;12046;44.702;10.622;2023-10-08T08:48:53;11.20;;;10.10;;
23730;SDS011;12046;44.702;10.622;2023-10-08T08:51:23;11.23;;;10.32;;
23730;SDS011;12046;44.702;10.622;2023-10-08T08:53:50;10.55;;;9.65;;
23730;SDS011;12046;44.702;10.622;2023-10-08T08:56:17;10.43;;;9.55;;
23730;SDS011;12046;44.702;10.622;2023-10-08T08:58:44;10.57;;;9.68;;
23730;SDS011;12046;44.702;10.622;2023-10-08T09:01:11;10.10;;;9.13;;
23730;SDS011;12046;44.702;10.622;2023-10-08T09:03:39;9.90;;;9.10;;
23730;SDS011;12046;44.702;10.622;2023-10-08T09:06:05;9.05;;;8.25;;
23730;SDS011;12046;44.702;10.622;2023-10-08T09:08:35;9.20;;;8.40;;
23730;SDS011;12046;44.702;10.622;2023-10-08T09:11:01;9.50;;;8.63;;
23730;SDS011;12046;44.702;10.622;2023-10-08T09:13:35;9.88;;;8.98;;
23730;SDS011;12046;44.702;10.622;2023-10-08T09:16:11;8.85;;;8.15;;
23730;SDS011;12046;44.702;10.622;2023-10-08T09:18:41;9.77;;;9.00;;
23730;SDS011;12046;44.702;10.622;2023-10-08T09:21:11;9.70;;;8.90;;
23730;SDS011;12046;44.702;10.622;2023-10-08T09:23:41;9.25;;;8.45;;
23730;SDS011;12046;44.702;10.622;2023-10-08T09:26:17;10.10;;;9.40;;
23730;SDS011;12046;44.702;10.622;2023-10-08T09:28:45;10.50;;;9.52;;
23730;SDS011;12046;44.702;10.622;2023-10-08T09:49:20;10.95;;;10.25;;
23730;SDS011;12046;44.702;10.622;2023-10-08T09:51:58;12.38;;;11.38;;
23730;SDS011;12046;44.702;10.622;2023-10-08T09:54:31;14.00;;;12.95;;
23730;SDS011;12046;44.702;10.622;2023-10-08T09:57:05;11.13;;;10.43;;
23730;SDS011;12046;44.702;10.622;2023-10-08T09:59:32;11.85;;;10.77;;
23730;SDS011;12046;44.702;10.622;2023-10-08T10:02:03;10.60;;;9.93;;
23730;SDS011;12046;44.702;10.622;2023-10-08T10:04:34;11.00;;;10.30;;
23730;SDS011;12046;44.702;10.622;2023-10-08T10:07:09;11.18;;;10.40;;
23730;SDS011;12046;44.702;10.622;2023-10-08T10:09:38;11.57;;;10.68;;
23730;SDS011;12046;44.702;10.622;2023-10-08T10:12:05;11.13;;;10.32;;
23730;SDS011;12046;44.702;10.622;2023-10-08T10:14:47;11.23;;;10.35;;
23730;SDS011;12046;44.702;10.622;2023-10-08T10:17:22;12.18;;;11.27;;
23730;SDS011;12046;44.702;10.622;2023-10-08T10:20:00;15.77;;;14.48;;
23730;SDS011;12046;44.702;10.622;2023-10-08T10:22:33;18.33;;;16.92;;
23730;SDS011;12046;44.702;10.622;2023-10-08T10:25:03;16.17;;;14.98;;
23730;SDS011;12046;44.702;10.622;2023-10-08T10:27:41;16.75;;;15.45;;
23730;SDS011;12046;44.702;10.622;2023-10-08T10:30:08;13.95;;;12.85;;
23730;SDS011;12046;44.702;10.622;2023-10-08T10:32:35;19.67;;;17.92;;
23730;SDS011;12046;44.702;10.622;2023-10-08T10:35:01;17.42;;;16.02;;
23730;SDS011;12046;44.702;10.622;2023-10-08T10:37:33;14.30;;;13.20;;
23730;SDS011;12046;44.702;10.622;2023-10-08T10:40:19;13.10;;;12.10;;
23730;SDS011;12046;44.702;10.622;2023-10-08T10:43:04;12.00;;;11.00;;
23730;SDS011;12046;44.702;10.622;2023-10-08T10:45:32;12.40;;;11.32;;
23730;SDS011;12046;44.702;10.622;2023-10-08T10:48:04;11.25;;;10.35;;
23730;SDS011;12046;44.702;10.622;2023-10-08T10:50:51;10.57;;;9.70;;
23730;SDS011;12046;44.702;10.622;2023-10-08T10:53:20;12.40;;;11.38;;
23730;SDS011;12046;44.702;10.622;2023-10-08T10:55:46;13.80;;;12.40;;
23730;SDS011;12046;44.702;10.622;2023-10-08T10:58:25;10.32;;;9.40;;
23730;SDS011;12046;44.702;10.622;2023-10-08T11:00:51;10.50;;;9.50;;
23730;SDS011;12046;44.702;10.622;2023-10-08T11:03:25;10.10;;;9.18;;
23730;SDS011;12046;44.702;10.622;2023-10-08T11:05:56;10.50;;;9.52;;
23730;SDS011;12046;44.702;10.622;2023-10-08T11:08:31;9.98;;;9.07;;
23730;SDS011;12046;44.702;10.622;2023-10-08T11:11:00;9.40;;;8.60;;
23730;SDS011;12046;44.702;10.622;2023-10-08T11:13:34;9.55;;;8.75;;
23730;SDS011;12046;44.702;10.622;2023-10-08T11:16:13;8.85;;;8.05;;
23730;SDS011;12046;44.702;10.622;2023-10-08T11:18:53;9.65;;;8.75;;
23730;SDS011;12046;44.702;10.622;2023-10-08T11:24:30;9.33;;;8.40;;
23730;SDS011;12046;44.702;10.622;2023-10-08T11:27:07;9.20;;;8.30;;
23730;SDS011;12046;44.702;10.622;2023-10-08T11:29:46;9.02;;;8.27;;
23730;SDS011;12046;44.702;10.622;2023-10-08T11:32:19;8.55;;;7.85;;
23730;SDS011;12046;44.702;10.622;2023-10-08T11:54:12;8.48;;;7.72;;
23730;SDS011;12046;44.702;10.622;2023-10-08T11:56:39;8.63;;;7.72;;
23730;SDS011;12046;44.702;10.622;2023-10-08T11:59:06;8.85;;;7.88;;
23730;SDS011;12046;44.702;10.622;2023-10-08T12:01:35;8.13;;;7.43;;
23730;SDS011;12046;44.702;10.622;2023-10-08T12:04:43;10.00;;;8.18;;
23730;SDS011;12046;44.702;10.622;2023-10-08T12:18:43;8.55;;;7.68;;
23730;SDS011;12046;44.702;10.622;2023-10-08T12:21:11;8.20;;;7.40;;
23730;SDS011;12046;44.702;10.622;2023-10-08T12:23:40;9.43;;;8.43;;
23730;SDS011;12046;44.702;10.622;2023-10-08T12:26:22;9.90;;;8.00;;
23730;SDS011;12046;44.702;10.622;2023-10-08T12:28:48;8.30;;;7.47;;
23730;SDS011;12046;44.702;10.622;2023-10-08T12:31:18;8.30;;;7.60;;
23730;SDS011;12046;44.702;10.622;2023-10-08T12:33:48;8.38;;;7.63;;
23730;SDS011;12046;44.702;10.622;2023-10-08T12:36:16;8.30;;;7.60;;
23730;SDS011;12046;44.702;10.622;2023-10-08T12:38:45;9.90;;;7.93;;
23730;SDS011;12046;44.702;10.622;2023-10-08T12:41:12;7.88;;;7.18;;
23730;SDS011;12046;44.702;10.622;2023-10-08T12:43:44;8.75;;;8.05;;
23730;SDS011;12046;44.702;10.622;2023-10-08T12:46:11;9.20;;;8.35;;
23730;SDS011;12046;44.702;10.622;2023-10-08T12:48:46;8.70;;;7.75;;
23730;SDS011;12046;44.702;10.622;2023-10-08T12:51:18;9.70;;;8.15;;
23730;SDS011;12046;44.702;10.622;2023-10-08T12:53:52;8.73;;;7.85;;
23730;SDS011;12046;44.702;10.622;2023-10-08T12:56:34;8.68;;;7.75;;
23730;SDS011;12046;44.702;10.622;2023-10-08T12:59:30;8.32;;;7.53;;
23730;SDS011;12046;44.702;10.622;2023-10-08T13:01:56;7.93;;;7.18;;
23730;SDS011;12046;44.702;10.622;2023-10-08T13:04:22;9.07;;;7.85;;
23730;SDS011;12046;44.702;10.622;2023-10-08T13:06:56;8.93;;;7.80;;
23730;SDS011;12046;44.702;10.622;2023-10-08T13:09:26;9.82;;;6.75;;
23730;SDS011;12046;44.702;10.622;2023-10-08T13:11:52;6.90;;;6.20;;
23730;SDS011;12046;44.702;10.622;2023-10-08T13:14:21;7.32;;;6.63;;
23730;SDS011;12046;44.702;10.622;2023-10-08T13:16:48;7.40;;;6.40;;
23730;SDS011;12046;44.702;10.622;2023-10-08T13:19:18;7.25;;;6.45;;
23730;SDS011;12046;44.702;10.622;2023-10-08T13:21:45;7.03;;;6.32;;
23730;SDS011;12046;44.702;10.622;2023-10-08T13:24:11;7.15;;;6.45;;
23730;SDS011;12046;44.702;10.622;2023-10-08T13:26:40;7.45;;;6.25;;
23730;SDS011;12046;44.702;10.622;2023-10-08T13:29:07;7.15;;;6.45;;
23730;SDS011;12046;44.702;10.622;2023-10-08T13:31:34;7.28;;;6.57;;
23730;SDS011;12046;44.702;10.622;2023-10-08T13:34:01;8.25;;;6.32;;
23730;SDS011;12046;44.702;10.622;2023-10-08T13:36:30;7.50;;;6.65;;
23730;SDS011;12046;44.702;10.622;2023-10-08T13:38:56;7.90;;;6.80;;
23730;SDS011;12046;44.702;10.622;2023-10-08T13:41:21;6.72;;;6.13;;
23730;SDS011;12046;44.702;10.622;2023-10-08T13:43:48;7.65;;;6.43;;
23730;SDS011;12046;44.702;10.622;2023-10-08T13:46:20;7.43;;;6.72;;
23730;SDS011;12046;44.702;10.622;2023-10-08T13:49:02;7.43;;;6.40;;
23730;SDS011;12046;44.702;10.622;2023-10-08T13:51:30;7.25;;;6.63;;
23730;SDS011;12046;44.702;10.622;2023-10-08T13:53:59;8.40;;;7.10;;
23730;SDS011;12046;44.702;10.622;2023-10-08T13:59:14;8.73;;;7.10;;
23730;SDS011;12046;44.702;10.622;2023-10-08T14:01:43;9.60;;;7.20;;
23730;SDS011;12046;44.702;10.622;2023-10-08T14:04:20;8.55;;;7.25;;
23730;SDS011;12046;44.702;10.622;2023-10-08T14:06:51;8.27;;;6.53;;
23730;SDS011;12046;44.702;10.622;2023-10-08T14:09:18;8.05;;;7.07;;
23730;SDS011;12046;44.702;10.622;2023-10-08T14:11:48;8.00;;;6.63;;
23730;SDS011;12046;44.702;10.622;2023-10-08T14:14:18;7.60;;;6.90;;
23730;SDS011;12046;44.702;10.622;2023-10-08T14:16:45;7.32;;;6.60;;
23730;SDS011;12046;44.702;10.622;2023-10-08T14:19:17;8.63;;;7.07;;
23730;SDS011;12046;44.702;10.622;2023-10-08T14:21:43;7.10;;;6.50;;
23730;SDS011;12046;44.702;10.622;2023-10-08T14:24:33;8.15;;;7.10;;
23730;SDS011;12046;44.702;10.622;2023-10-08T14:27:03;8.05;;;6.82;;
23730;SDS011;12046;44.702;10.622;2023-10-08T14:29:36;8.32;;;7.22;;
23730;SDS011;12046;44.702;10.622;2023-10-08T14:32:06;7.63;;;6.80;;
23730;SDS011;12046;44.702;10.622;2023-10-08T14:34:34;8.95;;;7.18;;
23730;SDS011;12046;44.702;10.622;2023-10-08T14:37:13;9.90;;;6.45;;
23730;SDS011;12046;44.702;10.622;2023-10-08T14:39:58;8.65;;;7.30;;
23730;SDS011;12046;44.702;10.622;2023-10-08T14:42:42;8.15;;;6.93;;
23730;SDS011;12046;44.702;10.622;2023-10-08T14:45:23;7.60;;;6.80;;
23730;SDS011;12046;44.702;10.622;2023-10-08T14:48:06;9.40;;;6.53;;
23730;SDS011;12046;44.702;10.622;2023-10-08T14:50:46;7.57;;;6.65;;
23730;SDS011;12046;44.702;10.622;2023-10-08T14:53:17;8.00;;;6.72;;
23730;SDS011;12046;44.702;10.622;2023-10-08T14:59:05;8.60;;;6.90;;
23730;SDS011;12046;44.702;10.622;2023-10-08T15:04:21;9.98;;;6.70;;
23730;SDS011;12046;44.702;10.622;2023-10-08T15:06:48;7.63;;;6.82;;
23730;SDS011;12046;44.702;10.622;2023-10-08T15:09:27;8.75;;;6.93;;
23730;SDS011;12046;44.702;10.622;2023-10-08T15:11:53;8.32;;;6.72;;
23730;SDS011;12046;44.702;10.622;2023-10-08T15:14:19;7.45;;;6.57;;
23730;SDS011;12046;44.702;10.622;2023-10-08T15:16:51;7.45;;;6.72;;
23730;SDS011;12046;44.702;10.622;2023-10-08T15:19:22;7.15;;;6.45;;
23730;SDS011;12046;44.702;10.622;2023-10-08T15:21:49;6.90;;;6.30;;
23730;SDS011;12046;44.702;10.622;2023-10-08T15:24:16;8.32;;;6.75;;
23730;SDS011;12046;44.702;10.622;2023-10-08T15:26:43;7.47;;;6.88;;
23730;SDS011;12046;44.702;10.622;2023-10-08T15:29:09;7.80;;;6.85;;
23730;SDS011;12046;44.702;10.622;2023-10-08T15:31:35;7.70;;;7.00;;
23730;SDS011;12046;44.702;10.622;2023-10-08T15:34:01;7.07;;;6.38;;
23730;SDS011;12046;44.702;10.622;2023-10-08T15:36:30;8.43;;;6.78;;
23730;SDS011;12046;44.702;10.622;2023-10-08T15:38:57;6.82;;;6.22;;
23730;SDS011;12046;44.702;10.622;2023-10-08T15:41:23;8.18;;;6.35;;
23730;SDS011;12046;44.702;10.622;2023-10-08T15:43:55;6.95;;;6.22;;
23730;SDS011;12046;44.702;10.622;2023-10-08T15:46:26;7.38;;;6.68;;
23730;SDS011;12046;44.702;10.622;2023-10-08T15:48:52;7.13;;;6.13;;
23730;SDS011;12046;44.702;10.622;2023-10-08T15:51:19;7.53;;;6.50;;
23730;SDS011;12046;44.702;10.622;2023-10-08T15:53:46;6.90;;;6.30;;
23730;SDS011;12046;44.702;10.622;2023-10-08T15:56:28;7.03;;;6.32;;
23730;SDS011;12046;44.702;10.622;2023-10-08T15:58:54;6.88;;;6.28;;
23730;SDS011;12046;44.702;10.622;2023-10-08T16:01:21;7.10;;;6.40;;
23730;SDS011;12046;44.702;10.622;2023-10-08T16:04:16;7.88;;;6.90;;
23730;SDS011;12046;44.702;10.622;2023-10-08T16:06:42;7.78;;;6.65;;
23730;SDS011;12046;44.702;10.622;2023-10-08T16:09:28;7.80;;;6.53;;
23730;SDS011;12046;44.702;10.622;2023-10-08T16:11:54;7.15;;;6.45;;
23730;SDS011;12046;44.702;10.622;2023-10-08T16:14:21;7.13;;;6.40;;
23730;SDS011;12046;44.702;10.622;2023-10-08T16:16:47;7.13;;;6.32;;
23730;SDS011;12046;44.702;10.622;2023-10-08T16:19:16;8.45;;;7.13;;
23730;SDS011;12046;44.702;10.622;2023-10-08T16:21:42;7.35;;;6.38;;
23730;SDS011;12046;44.702;10.622;2023-10-08T16:24:11;10.38;;;7.00;;
23730;SDS011;12046;44.702;10.622;2023-10-08T16:26:43;6.97;;;6.35;;
23730;SDS011;12046;44.702;10.622;2023-10-08T16:29:09;8.93;;;6.85;;
23730;SDS011;12046;44.702;10.622;2023-10-08T16:31:41;7.45;;;6.70;;
23730;SDS011;12046;44.702;10.622;2023-10-08T16:34:08;9.38;;;6.93;;
23730;SDS011;12046;44.702;10.622;2023-10-08T16:36:43;8.90;;;7.00;;
23730;SDS011;12046;44.702;10.622;2023-10-08T16:39:16;7.70;;;6.80;;
23730;SDS011;12046;44.702;10.622;2023-10-08T16:41:45;8.95;;;7.40;;
23730;SDS011;12046;44.702;10.622;2023-10-08T16:44:14;8.57;;;7.28;;
23730;SDS011;12046;44.702;10.622;2023-10-08T17:01:00;9.20;;;7.38;;
23730;SDS011;12046;44.702;10.622;2023-10-08T17:06:06;9.38;;;7.60;;
23730;SDS011;12046;44.702;10.622;2023-10-08T17:08:35;8.50;;;7.57;;
23730;SDS011;12046;44.702;10.622;2023-10-08T17:11:14;10.55;;;7.68;;
23730;SDS011;12046;44.702;10.622;2023-10-08T17:13:49;9.68;;;8.68;;
23730;SDS011;12046;44.702;10.622;2023-10-08T17:16:18;9.55;;;7.82;;
23730;SDS011;12046;44.702;10.622;2023-10-08T17:18:43;9.27;;;8.32;;
23730;SDS011;12046;44.702;10.622;2023-10-08T17:37:16;10.25;;;8.52;;
23730;SDS011;12046;44.702;10.622;2023-10-08T17:39:42;9.95;;;8.88;;
23730;SDS011;12046;44.702;10.622;2023-10-08T17:42:10;9.05;;;8.10;;
23730;SDS011;12046;44.702;10.622;2023-10-08T17:44:36;9.35;;;8.27;;
23730;SDS011;12046;44.702;10.622;2023-10-08T17:47:02;11.35;;;8.63;;
23730;SDS011;12046;44.702;10.622;2023-10-08T17:49:29;11.57;;;8.73;;
23730;SDS011;12046;44.702;10.622;2023-10-08T18:09:44;10.95;;;9.10;;
23730;SDS011;12046;44.702;10.622;2023-10-08T18:12:12;13.68;;;9.57;;
23730;SDS011;12046;44.702;10.622;2023-10-08T18:14:39;12.70;;;8.98;;
23730;SDS011;12046;44.702;10.622;2023-10-08T18:17:05;14.63;;;9.70;;
23730;SDS011;12046;44.702;10.622;2023-10-08T18:19:48;13.20;;;9.18;;
23730;SDS011;12046;44.702;10.622;2023-10-08T18:22:40;10.38;;;8.75;;
23730;SDS011;12046;44.702;10.622;2023-10-08T18:25:07;14.35;;;8.75;;
23730;SDS011;12046;44.702;10.622;2023-10-08T18:27:35;10.93;;;8.13;;
23730;SDS011;12046;44.702;10.622;2023-10-08T18:30:02;10.95;;;8.60;;
23730;SDS011;12046;44.702;10.622;2023-10-08T18:32:31;12.50;;;8.02;;
23730;SDS011;12046;44.702;10.622;2023-10-08T18:35:08;13.50;;;8.85;;
23730;SDS011;12046;44.702;10.622;2023-10-08T18:37:37;13.00;;;8.63;;
23730;SDS011;12046;44.702;10.622;2023-10-08T18:40:04;11.95;;;8.45;;
23730;SDS011;12046;44.702;10.622;2023-10-08T18:42:40;14.77;;;8.85;;
23730;SDS011;12046;44.702;10.622;2023-10-08T18:45:10;11.05;;;7.65;;
23730;SDS011;12046;44.702;10.622;2023-10-08T18:47:39;10.23;;;7.47;;
23730;SDS011;12046;44.702;10.622;2023-10-08T18:50:06;9.95;;;7.50;;
23730;SDS011;12046;44.702;10.622;2023-10-08T18:52:50;10.15;;;7.35;;
23730;SDS011;12046;44.702;10.622;2023-10-08T18:55:19;9.30;;;7.05;;
23730;SDS011;12046;44.702;10.622;2023-10-08T18:57:46;9.32;;;6.97;;
23730;SDS011;12046;44.702;10.622;2023-10-08T19:00:19;9.48;;;7.40;;
23730;SDS011;12046;44.702;10.622;2023-10-08T19:03:01;11.32;;;7.78;;
23730;SDS011;12046;44.702;10.622;2023-10-08T19:05:29;9.60;;;7.45;;
23730;SDS011;12046;44.702;10.622;2023-10-08T19:13:41;11.98;;;8.07;;
23730;SDS011;12046;44.702;10.622;2023-10-08T19:16:16;9.38;;;8.02;;
23730;SDS011;12046;44.702;10.622;2023-10-08T19:19:01;8.85;;;6.97;;
23730;SDS011;12046;44.702;10.622;2023-10-08T19:21:30;9.98;;;7.40;;
23730;SDS011;12046;44.702;10.622;2023-10-08T19:24:27;8.75;;;7.45;;
23730;SDS011;12046;44.702;10.622;2023-10-08T19:29:53;8.80;;;7.20;;
23730;SDS011;12046;44.702;10.622;2023-10-08T19:32:19;9.98;;;7.05;;
23730;SDS011;12046;44.702;10.622;2023-10-08T19:34:45;9.00;;;7.10;;
23730;SDS011;12046;44.702;10.622;2023-10-08T19:37:11;10.75;;;7.05;;
23730;SDS011;12046;44.702;10.622;2023-10-08T19:39:39;8.15;;;6.95;;
23730;SDS011;12046;44.702;10.622;2023-10-08T19:42:11;9.25;;;7.10;;
23730;SDS011;12046;44.702;10.622;2023-10-08T19:44:52;10.82;;;7.32;;
23730;SDS011;12046;44.702;10.622;2023-10-08T19:47:20;11.43;;;7.32;;
23730;SDS011;12046;44.702;10.622;2023-10-08T19:49:49;11.32;;;7.30;;